Time;durP1;ratioP1;P1;durP2;ratioP2;P2;SDS_P1;SDS_P2;PMS_P1;PMS_P2;Temp;Humidity;BMP_temperature;BMP_pressure;BME280_temperature;BME280_humidity;BME280_pressure;Samples;Min_cycle;Max_cycle;Signal;HPM_P1;HPM_P2
2023/09/25 00:03:06;;;;;;;;;;;15.10;48.70;;;14.25;51.40;102471.66;12245850;19;19915;-81
2023/09/25 00:07:08;;;;;;;;;;;15.10;48.70;;;14.19;51.34;102467.53;12243436;19;19982;-81
2023/09/25 00:11:10;;;;;;;;;;;15.10;48.70;;;14.07;51.35;102454.91;12245618;19;19911;-81
2023/09/25 00:15:12;;;;;;;;;;;15.00;48.70;;;14.17;51.48;102470.19;12243166;19;19978;-81
2023/09/25 00:19:14;;;;;;;;;;;15.00;48.70;;;14.09;51.39;102456.53;12243799;19;19918;-80
2023/09/25 00:23:15;;;;;;;;;;;15.00;48.80;;;14.05;51.47;102457.59;12243344;19;19926;-82
2023/09/25 00:27:17;;;;;;;;;;;15.00;48.80;;;13.97;51.58;102443.09;12243363;19;20340;-82
2023/09/25 00:31:21;;;;;;;;;;;14.90;48.80;;;14.05;51.47;102457.59;12243720;19;19926;-81
2023/09/25 00:35:23;;;;;;;;;;;15.10;48.80;;;14.03;51.44;102455.97;12243619;19;20431;-81
2023/09/25 00:39:24;;;;;;;;;;;14.90;48.80;;;14.01;51.54;102469.13;12241471;19;19923;-81
2023/09/25 00:43:26;;;;;;;;;;;14.90;48.80;;;14.00;51.50;102467.44;12241790;19;19923;-82
2023/09/25 00:47:27;;;;;;;;;;;14.90;48.80;;;13.91;51.51;102457.34;12237975;19;19947;-82
2023/09/25 00:51:29;;;;;;;;;;;14.80;48.80;;;13.84;51.69;102440.09;12241769;19;20246;-81
2023/09/25 00:55:31;;;;;;;;;;;14.80;48.80;;;13.78;51.60;102438.59;12243292;19;19919;-81
2023/09/25 00:59:33;;;;;;;;;;;14.80;48.80;;;13.80;51.59;102446.38;12237897;19;19919;-82
2023/09/25 01:03:34;;;;;;;;;;;14.80;48.80;;;13.62;51.59;102421.75;12237403;19;19915;-81
2023/09/25 01:07:36;;;;;;;;;;;14.70;48.70;;;13.80;51.65;102449.91;12241307;19;20273;-81
2023/09/25 01:11:42;;;;;;;;;;;14.70;48.80;;;13.69;51.70;102434.59;12239518;19;19925;-81
2023/09/25 01:15:43;;;;;;;;;;;14.70;48.80;;;13.64;51.64;102428.66;12237806;19;19925;-81
2023/09/25 01:19:45;;;;;;;;;;;14.60;48.70;;;13.68;51.63;102448.59;12237472;19;19934;-82
2023/09/25 01:23:47;;;;;;;;;;;14.60;48.70;;;13.63;51.68;102440.06;12240769;19;19923;-82
2023/09/25 01:27:48;;;;;;;;;;;14.50;48.60;;;13.57;51.69;102436.84;12244825;19;19923;-81
2023/09/25 01:31:50;;;;;;;;;;;14.50;48.60;;;13.49;51.50;102443.25;12251384;19;19923;-82
2023/09/25 01:35:52;;;;;;;;;;;14.50;48.50;;;13.34;51.56;102427.25;12253299;19;19974;-81
2023/09/25 01:39:53;;;;;;;;;;;14.50;48.50;;;13.35;51.61;102442.94;12248995;19;19915;-81
2023/09/25 01:43:55;;;;;;;;;;;14.20;48.50;;;13.23;51.84;102425.88;12251275;19;19915;-82
2023/09/25 01:47:57;;;;;;;;;;;14.30;48.60;;;13.27;51.69;102434.53;12249697;19;19918;-81
2023/09/25 01:51:58;;;;;;;;;;;14.20;48.60;;;13.26;51.66;102435.44;12250432;19;20274;-81
2023/09/25 01:56:09;;;;;;;;;;;14.30;48.70;;;13.19;51.67;102428.69;12250996;19;19943;-81
2023/09/25 02:00:12;;;;;;;;;;;14.10;48.70;;;13.02;51.75;102401.34;12247201;19;20359;-82
2023/09/25 02:04:17;;;;;;;;;;;14.10;48.70;;;13.10;51.63;102422.03;12249122;19;20414;-82
2023/09/25 02:08:18;;;;;;;;;;;14.10;48.70;;;13.07;51.75;102430.88;12248826;19;19919;-82
2023/09/25 02:12:20;;;;;;;;;;;14.10;48.70;;;13.01;51.58;102428.47;12249696;19;20313;-81
2023/09/25 02:16:22;;;;;;;;;;;14.00;48.60;;;12.95;51.65;102423.44;12245655;19;19926;-81
2023/09/25 02:20:25;;;;;;;;;;;13.90;49.00;;;12.90;51.69;102427.16;12246622;19;19944;-81
2023/09/25 02:24:27;;;;;;;;;;;13.90;48.60;;;12.83;51.71;102424.78;12247437;19;19945;-82
2023/09/25 02:28:29;;;;;;;;;;;13.80;48.60;;;12.73;51.80;102415.53;12248743;19;19926;-81
2023/09/25 02:32:30;;;;;;;;;;;13.80;48.70;;;12.72;51.66;102408.59;12248063;19;19944;-81
2023/09/25 02:36:32;;;;;;;;;;;13.70;48.70;;;12.60;51.73;102407.28;12250555;19;19923;-82
2023/09/25 02:40:34;;;;;;;;;;;13.60;48.70;;;12.65;51.85;102420.22;12246343;19;19938;-82
2023/09/25 02:44:35;;;;;;;;;;;13.60;48.70;;;12.58;51.83;102409.13;12247054;19;19937;-81
2023/09/25 02:48:37;;;;;;;;;;;13.60;48.80;;;12.58;51.82;102416.97;12245993;19;19955;-81
2023/09/25 02:52:38;;;;;;;;;;;13.60;48.80;;;12.54;51.93;102417.13;12245676;19;19923;-82
2023/09/25 02:56:39;;;;;;;;;;;13.50;48.80;;;12.43;51.80;102411.44;12246677;19;19928;-82
2023/09/25 03:00:40;;;;;;;;;;;13.50;48.80;;;12.45;51.84;102425.31;12243354;19;19923;-82
2023/09/25 03:04:42;;;;;;;;;;;13.50;48.80;;;12.37;51.81;102415.13;12244272;19;19926;-82
2023/09/25 03:08:43;;;;;;;;;;;13.40;48.80;;;12.36;51.81;102426.50;12243713;19;19918;-81
2023/09/25 03:12:45;;;;;;;;;;;13.30;48.70;;;12.28;52.01;102412.81;12246547;19;19982;-81
2023/09/25 03:16:47;;;;;;;;;;;13.30;48.80;;;12.20;51.79;102409.59;12245706;19;19923;-81
2023/09/25 03:20:49;;;;;;;;;;;13.30;48.80;;;12.21;51.91;102420.03;12245387;19;19926;-82
2023/09/25 03:24:50;;;;;;;;;;;13.30;48.90;;;12.21;51.91;102433.13;12245065;19;19986;-81
2023/09/25 03:28:52;;;;;;;;;;;13.40;49.00;;;12.10;52.03;102430.88;12243420;19;19911;-82
2023/09/25 03:32:54;;;;;;;;;;;13.20;49.00;;;12.16;52.16;102432.44;12243772;19;20277;-81
2023/09/25 03:36:56;;;;;;;;;;;13.10;48.90;;;12.10;52.09;102430.88;12245507;19;19919;-82
2023/09/25 03:40:57;;;;;;;;;;;13.10;48.90;;;12.13;52.20;102432.56;12245692;19;19915;-82
2023/09/25 03:44:59;;;;;;;;;;;13.10;49.00;;;12.13;52.09;102433.41;12243698;19;19936;-81
2023/09/25 03:49:05;;;;;;;;;;;13.10;49.00;;;11.95;52.02;102410.44;12245189;19;19931;-82
2023/09/25 03:53:07;;;;;;;;;;;13.10;49.00;;;12.08;52.22;102431.84;12241750;19;19940;-81
2023/09/25 03:57:09;;;;;;;;;;;13.10;49.00;;;12.05;52.14;102437.19;12243173;19;20641;-82
2023/09/25 04:01:10;;;;;;;;;;;13.10;49.00;;;11.99;52.00;102432.13;12242955;19;19915;-82
2023/09/25 04:05:12;;;;;;;;;;;13.00;49.00;;;11.95;52.14;102423.53;12237893;19;19935;-81
2023/09/25 04:09:14;;;;;;;;;;;13.00;48.90;;;11.92;52.13;102415.81;12241908;19;19911;-81
2023/09/25 04:13:16;;;;;;;;;;;13.00;48.90;;;11.93;52.17;102434.06;12244209;19;19919;-81
2023/09/25 04:17:17;;;;;;;;;;;13.00;49.00;;;11.87;52.18;102431.66;12243809;19;20330;-81
2023/09/25 04:21:21;;;;;;;;;;;12.90;49.00;;;11.47;52.19;102380.56;12244509;19;19975;-82
2023/09/25 04:25:24;;;;;;;;;;;12.90;48.90;;;11.83;52.21;102432.63;12241728;19;19930;-82
2023/09/25 04:29:26;;;;;;;;;;;12.90;49.00;;;11.81;52.13;102429.22;12239700;19;19926;-81
2023/09/25 04:33:29;;;;;;;;;;;12.90;49.00;;;11.79;52.15;102427.53;12237655;19;20332;-83
2023/09/25 04:37:31;;;;;;;;;;;12.90;49.00;;;11.79;52.32;102431.00;12241412;19;19935;-83
2023/09/25 04:41:33;;;;;;;;;;;12.80;49.00;;;11.76;52.29;102430.28;12241521;19;20284;-83
2023/09/25 04:45:34;;;;;;;;;;;12.80;49.00;;;11.73;52.24;102432.06;12242894;19;19957;-83
2023/09/25 04:49:36;;;;;;;;;;;12.80;49.00;;;11.49;52.15;102380.53;12237202;19;19936;-83
2023/09/25 04:53:37;;;;;;;;;;;12.80;49.10;;;11.64;52.37;102415.84;12239537;19;19923;-83
2023/09/25 04:57:43;;;;;;;;;;;12.70;49.00;;;11.58;52.28;102406.41;12240112;19;20000;-82
2023/09/25 05:01:45;;;;;;;;;;;12.70;49.10;;;11.63;52.48;102403.63;12238924;19;19922;-82
2023/09/25 05:05:47;;;;;;;;;;;12.70;49.10;;;11.62;52.44;102412.41;12250523;19;19922;-83
2023/09/25 05:09:49;;;;;;;;;;;12.70;49.10;;;11.53;52.43;102405.72;12250061;19;19927;-83
2023/09/25 05:13:51;;;;;;;;;;;12.70;49.10;;;11.54;52.41;102420.50;12252533;19;19946;-83
2023/09/25 05:17:53;;;;;;;;;;;12.70;49.10;;;11.49;52.37;102402.31;12252208;19;19981;-82
2023/09/25 05:21:54;;;;;;;;;;;12.70;49.10;;;11.59;52.49;102415.13;12249603;19;19990;-83
2023/09/25 05:25:59;;;;;;;;;;;12.70;49.20;;;11.64;52.42;102432.38;12251608;19;19914;-83
2023/09/25 05:30:05;;;;;;;;;;;12.70;49.20;;;11.66;52.43;102435.78;12247590;19;19953;-83
2023/09/25 05:34:07;;;;;;;;;;;12.70;49.30;;;11.49;52.53;102407.56;12253355;19;19923;-83
2023/09/25 05:38:09;;;;;;;;;;;12.70;49.30;;;11.36;52.65;102379.22;12252337;19;19943;-82
2023/09/25 05:42:10;;;;;;;;;;;12.80;49.30;;;11.70;52.53;102441.78;12251797;19;19925;-83
2023/09/25 05:46:12;;;;;;;;;;;12.80;49.30;;;11.71;52.76;102439.09;12251482;19;19911;-84
2023/09/25 05:50:14;;;;;;;;;;;12.90;49.30;;;11.69;52.63;102434.81;12249549;19;19915;-84
2023/09/25 05:54:15;;;;;;;;;;;12.80;49.30;;;11.73;52.58;102432.06;12254355;19;19971;-84
2023/09/25 05:58:17;;;;;;;;;;;12.90;49.30;;;11.78;52.58;102445.03;12251290;19;19935;-84
2023/09/25 06:02:18;;;;;;;;;;;12.90;49.30;;;11.68;52.60;102422.66;12253410;19;19918;-85
2023/09/25 06:06:20;;;;;;;;;;;12.90;49.40;;;11.66;52.55;102422.69;12248573;19;19927;-84
2023/09/25 06:10:23;;;;;;;;;;;12.90;49.40;;;11.63;52.69;102419.34;12249879;19;19982;-84
2023/09/25 06:14:25;;;;;;;;;;;12.90;49.40;;;11.76;52.76;102436.34;12251152;19;19914;-85
2023/09/25 06:18:29;;;;;;;;;;;12.90;49.50;;;11.79;52.67;102446.72;12249975;19;19911;-84
2023/09/25 06:22:34;;;;;;;;;;;12.90;49.50;;;11.69;52.78;102433.09;12253197;19;19906;-84
2023/09/25 06:26:39;;;;;;;;;;;13.10;49.70;;;11.71;52.71;102435.66;12250689;19;19932;-84
2023/09/25 06:30:41;;;;;;;;;;;13.00;49.80;;;11.64;52.77;102418.44;12250853;19;19933;-85
2023/09/25 06:34:43;;;;;;;;;;;13.00;50.00;;;11.65;53.08;102401.84;12252405;19;20386;-84
2023/09/25 06:38:44;;;;;;;;;;;13.10;50.20;;;11.94;53.23;102430.56;12248226;19;19915;-83
2023/09/25 06:42:46;;;;;;;;;;;13.20;50.40;;;12.07;53.37;102443.22;12250753;19;20368;-83
2023/09/25 06:46:49;;;;;;;;;;;13.30;50.50;;;12.11;53.16;102423.88;12245540;19;19935;-85
2023/09/25 06:50:50;;;;;;;;;;;13.40;50.60;;;12.31;53.16;102434.53;12248586;19;20325;-84
2023/09/25 06:54:52;;;;;;;;;;;13.50;50.70;;;12.31;53.29;102413.59;12250609;19;19929;-84
2023/09/25 06:58:54;;;;;;;;;;;13.60;50.80;;;12.54;53.31;102425.00;12246828;19;19923;-83
2023/09/25 07:02:56;;;;;;;;;;;13.80;51.00;;;12.63;53.46;102422.03;12250437;19;19922;-84
2023/09/25 07:06:58;;;;;;;;;;;13.90;51.10;;;12.48;53.39;102381.53;12246829;19;19914;-84
2023/09/25 07:10:59;;;;;;;;;;;14.00;51.20;;;12.58;53.42;102379.41;12250005;19;19915;-84
2023/09/25 07:15:02;;;;;;;;;;;14.10;51.30;;;12.84;53.51;102402.03;12247880;19;20342;-84
2023/09/25 07:19:04;;;;;;;;;;;14.20;51.40;;;13.09;53.61;102419.44;12248235;19;20250;-83
2023/09/25 07:23:06;;;;;;;;;;;14.40;51.60;;;13.24;53.63;102427.59;12247522;19;20595;-84
2023/09/25 07:27:07;;;;;;;;;;;14.50;51.80;;;13.36;53.52;102423.66;12244758;19;19913;-84
2023/09/25 07:31:09;;;;;;;;;;;14.60;52.30;;;13.54;53.59;102423.84;12248514;19;20245;-84
2023/09/25 07:35:15;;;;;;;;;;;14.80;52.30;;;13.64;53.61;102423.41;12248906;19;19953;-84
2023/09/25 07:39:22;;;;;;;;;;;14.90;52.30;;;13.80;53.70;102420.13;12245938;19;19930;-84
2023/09/25 07:43:25;;;;;;;;;;;15.00;52.30;;;13.98;53.70;102424.63;12247818;19;20629;-84
2023/09/25 07:47:29;;;;;;;;;;;15.20;53.00;;;13.91;53.68;102397.78;12245190;19;19927;-83
2023/09/25 07:51:32;;;;;;;;;;;15.40;53.10;;;14.29;53.86;102429.44;12247713;19;20596;-84
2023/09/25 07:55:34;;;;;;;;;;;15.50;53.70;;;14.39;53.95;102419.34;12245653;19;19918;-83
2023/09/25 07:59:35;;;;;;;;;;;15.70;54.00;;;14.38;54.06;102376.44;12244495;19;20261;-84
2023/09/25 08:03:39;;;;;;;;;;;15.90;53.20;;;14.90;53.97;102427.63;12246239;19;20009;-83
2023/09/25 08:07:41;;;;;;;;;;;16.10;53.00;;;15.02;54.15;102412.13;12246448;19;19922;-83
2023/09/25 08:11:43;;;;;;;;;;;16.40;53.30;;;15.32;54.11;102430.03;12247025;19;19918;-83
2023/09/25 08:15:44;;;;;;;;;;;16.60;53.10;;;15.58;54.21;102430.53;12244569;19;19919;-82
2023/09/25 08:19:50;;;;;;;;;;;16.90;53.00;;;15.77;54.41;102423.50;12244418;19;20353;-82
2023/09/25 08:23:52;;;;;;;;;;;17.10;53.20;;;15.99;54.44;102423.25;12242904;19;19919;-84
2023/09/25 08:27:53;;;;;;;;;;;17.30;53.10;;;16.18;54.47;102419.69;12244963;19;20313;-83
2023/09/25 08:31:54;;;;;;;;;;;17.50;53.00;;;16.40;54.50;102406.22;12245277;19;19943;-84
2023/09/25 08:35:56;;;;;;;;;;;17.80;52.80;;;16.68;54.41;102417.00;12245632;19;19929;-83
2023/09/25 08:39:57;;;;;;;;;;;18.00;53.20;;;16.71;54.36;102377.25;12253967;19;19936;-83
2023/09/25 08:44:00;;;;;;;;;;;18.30;52.90;;;17.09;54.62;102405.97;12254060;19;19922;-83
2023/09/25 08:48:02;;;;;;;;;;;18.60;52.90;;;17.32;54.66;102411.78;12254419;19;19922;-84
2023/09/25 08:52:04;;;;;;;;;;;18.80;53.10;;;17.57;54.43;102412.06;12254576;19;19926;-83
2023/09/25 08:56:06;;;;;;;;;;;19.00;52.90;;;17.80;54.61;102413.41;12256657;19;19936;-83
2023/09/25 09:00:14;;;;;;;;;;;19.20;52.50;;;17.95;54.75;102414.28;12249483;19;19930;-83
2023/09/25 09:04:16;;;;;;;;;;;19.40;52.30;;;18.20;54.65;102411.03;12253238;19;20321;-83
2023/09/25 09:08:17;;;;;;;;;;;19.60;52.20;;;18.39;54.70;102408.13;12251561;19;19911;-82
2023/09/25 09:12:19;;;;;;;;;;;19.80;52.40;;;18.54;54.53;102407.16;12254466;19;19919;-83
2023/09/25 09:16:21;;;;;;;;;;;20.00;52.10;;;18.63;54.83;102391.66;12252688;19;19921;-83
2023/09/25 09:20:32;;;;;;;;;;;20.20;52.00;;;18.73;54.88;102366.31;12249342;19;20248;-83
2023/09/25 09:24:37;;;;;;;;;;;20.40;52.00;;;19.12;54.43;102399.16;12252780;19;19920;-83
2023/09/25 09:28:41;;;;;;;;;;;20.60;51.90;;;19.36;54.51;102400.22;12251430;19;19915;-82
2023/09/25 09:32:43;;;;;;;;;;;20.80;51.80;;;19.59;54.52;102411.09;12253974;19;20376;-83
2023/09/25 09:36:52;;;;;;;;;;;21.00;51.70;;;19.71;54.40;102386.44;12253388;19;19919;-82
2023/09/25 09:40:54;;;;;;;;;;;21.20;51.60;;;19.85;54.79;102375.78;12252501;19;20295;-83
2023/09/25 09:44:56;;;;;;;;;;;21.40;51.70;;;20.10;54.64;102372.28;12249104;19;19923;-82
2023/09/25 09:48:59;;;;;;;;;;;21.60;51.30;;;20.34;54.49;102375.03;12247705;19;20366;-83
2023/09/25 09:53:03;;;;;;;;;;;21.80;51.20;;;20.48;54.27;102366.09;12249034;19;20012;-83
2023/09/25 09:57:05;;;;;;;;;;;22.00;51.10;;;20.52;54.62;102334.84;12252061;19;19915;-83
2023/09/25 10:01:08;;;;;;;;;;;22.10;50.50;;;20.84;54.50;102350.31;12251571;19;19943;-83
2023/09/25 10:05:17;;;;;;;;;;;22.30;50.70;;;21.02;54.55;102354.28;12248509;19;19940;-82
2023/09/25 10:09:18;;;;;;;;;;;22.40;50.60;;;21.17;54.11;102355.81;12246922;19;19935;-83
2023/09/25 10:13:22;;;;;;;;;;;22.60;50.60;;;21.33;54.29;102359.97;12249633;19;19918;-83
2023/09/25 10:17:37;;;;;;;;;;;22.80;50.70;;;21.51;54.37;102365.75;12250533;19;19919;-82
2023/09/25 10:21:38;;;;;;;;;;;22.90;50.40;;;21.58;54.04;102354.53;12250562;19;19915;-82
2023/09/25 10:25:47;;;;;;;;;;;23.00;50.40;;;21.79;53.95;102360.03;12246929;19;19951;-83
2023/09/25 10:30:11;;;;;;;;;;;23.20;50.10;;;21.98;53.85;102364.78;12246853;19;19914;-82
2023/09/25 10:34:13;;;;;;;;;;;23.40;50.20;;;22.12;53.85;102354.88;12248911;19;19957;-82
2023/09/25 10:38:21;;;;;;;;;;;23.50;49.80;;;22.18;53.78;102343.75;12246854;19;19927;-82
2023/09/25 10:42:23;;;;;;;;;;;23.60;49.60;;;22.35;53.89;102348.59;12248136;19;19934;-82
2023/09/25 10:46:24;;;;;;;;;;;23.70;49.80;;;22.50;53.89;102331.41;12242714;19;19919;-82
2023/09/25 10:50:26;;;;;;;;;;;23.80;48.70;;;22.60;53.25;102328.84;12245661;19;19914;-82
2023/09/25 10:54:28;;;;;;;;;;;23.90;47.80;;;22.70;53.49;102319.13;12247580;19;19946;-82
2023/09/25 10:58:31;;;;;;;;;;;24.00;48.70;;;22.71;53.28;102312.84;12244379;19;19935;-83
2023/09/25 11:02:33;;;;;;;;;;;24.10;48.40;;;22.83;53.46;102312.81;12246770;19;19923;-82
2023/09/25 11:06:34;;;;;;;;;;;24.20;48.70;;;22.97;53.35;102310.72;12243478;19;19954;-82
2023/09/25 11:10:37;;;;;;;;;;;24.20;49.00;;;23.07;53.20;102308.16;12242482;19;19919;-82
2023/09/25 11:14:39;;;;;;;;;;;24.30;48.80;;;23.11;53.16;102292.75;12244911;19;19939;-82
2023/09/25 11:18:40;;;;;;;;;;;24.40;48.30;;;23.27;52.97;102306.47;12243949;19;19934;-82
2023/09/25 11:22:42;;;;;;;;;;;24.50;49.00;;;23.39;53.19;102297.44;12243233;19;19933;-81
2023/09/25 11:26:44;;;;;;;;;;;24.60;47.50;;;23.49;52.89;102302.81;12243183;19;19919;-81
2023/09/25 11:30:48;;;;;;;;;;;24.70;48.70;;;23.53;53.02;102284.75;12243353;19;19946;-82
2023/09/25 11:34:51;;;;;;;;;;;24.80;48.00;;;23.61;52.30;102283.13;12242444;19;19915;-82
2023/09/25 11:38:52;;;;;;;;;;;24.90;47.70;;;23.76;52.69;102285.47;12242406;19;19998;-82
2023/09/25 11:42:55;;;;;;;;;;;25.00;48.50;;;23.74;52.83;102263.44;12243959;19;20337;-82
2023/09/25 11:46:57;;;;;;;;;;;25.00;48.00;;;23.92;52.49;102282.31;12241367;19;19942;-81
2023/09/25 11:51:00;;;;;;;;;;;25.10;47.80;;;23.99;52.33;102276.31;12243374;19;19943;-82
2023/09/25 11:55:01;;;;;;;;;;;25.10;45.10;;;24.08;52.08;102280.81;12244675;19;20336;-82
2023/09/25 11:59:03;;;;;;;;;;;25.10;47.90;;;24.09;51.86;102260.34;12240148;19;19923;-82
2023/09/25 12:03:07;;;;;;;;;;;25.30;47.00;;;24.17;52.23;102267.66;12243927;19;19930;-81
2023/09/25 12:07:10;;;;;;;;;;;25.30;47.40;;;24.10;51.93;102246.00;12241480;19;19929;-82
2023/09/25 12:11:11;;;;;;;;;;;25.30;47.10;;;24.19;52.00;102261.19;12238709;19;19952;-81
2023/09/25 12:15:14;;;;;;;;;;;25.30;45.60;;;24.07;51.48;102235.59;12243902;19;20246;-81
2023/09/25 12:19:16;;;;;;;;;;;25.30;45.90;;;24.22;51.58;102254.72;12238868;19;19923;-81
2023/09/25 12:23:17;;;;;;;;;;;25.30;46.10;;;24.23;51.49;102251.94;12242726;19;19974;-82
2023/09/25 12:27:19;;;;;;;;;;;25.30;43.50;;;24.23;51.19;102240.41;12239342;19;19914;-80
2023/09/25 12:31:21;;;;;;;;;;;25.30;46.50;;;24.30;51.15;102252.22;12242824;19;19932;-82
2023/09/25 12:35:23;;;;;;;;;;;25.30;46.80;;;24.28;50.88;102247.03;12240378;19;19918;-82
2023/09/25 12:39:25;;;;;;;;;;;25.30;46.70;;;24.31;51.53;102243.25;12238329;19;19911;-82
2023/09/25 12:43:26;;;;;;;;;;;25.40;46.60;;;24.38;51.15;102248.88;12235947;19;19951;-82
2023/09/25 12:47:28;;;;;;;;;;;25.40;46.80;;;24.40;51.05;102231.72;12238215;19;19926;-82
2023/09/25 12:51:30;;;;;;;;;;;25.40;46.50;;;24.42;51.22;102227.09;12240382;19;19947;-83
2023/09/25 12:55:33;;;;;;;;;;;25.40;44.90;;;24.43;51.00;102233.28;12243425;19;20356;-82
2023/09/25 12:59:34;;;;;;;;;;;25.40;46.40;;;24.39;50.96;102214.03;12239214;19;20260;-82
2023/09/25 13:03:35;;;;;;;;;;;25.40;47.10;;;24.45;51.15;102224.19;12239555;19;20352;-82
2023/09/25 13:07:37;;;;;;;;;;;25.40;45.60;;;24.41;50.81;102220.09;12241306;19;19935;-82
2023/09/25 13:11:40;;;;;;;;;;;25.40;47.10;;;24.48;50.99;102212.38;12239568;19;19927;-81
2023/09/25 13:15:42;;;;;;;;;;;25.40;47.40;;;24.42;50.88;102204.91;12239271;19;19918;-81
2023/09/25 13:19:44;;;;;;;;;;;25.50;47.50;;;24.49;50.58;102219.41;12235967;19;19920;-81
2023/09/25 13:23:46;;;;;;;;;;;25.50;45.90;;;24.43;50.53;102190.56;12243463;19;19922;-82
2023/09/25 13:27:49;;;;;;;;;;;25.50;45.70;;;24.54;50.32;102201.13;12247816;19;20341;-82
2023/09/25 13:31:50;;;;;;;;;;;25.40;46.00;;;24.55;50.71;102197.50;12252859;19;19928;-84
2023/09/25 13:35:52;;;;;;;;;;;25.50;46.50;;;24.49;50.26;102182.88;12264355;19;19915;-84
2023/09/25 13:39:56;;;;;;;;;;;25.50;46.90;;;24.42;50.30;102162.16;12259627;19;19926;-82
2023/09/25 13:43:58;;;;;;;;;;;25.50;46.70;;;24.61;50.50;102188.06;12260069;19;19919;-82
2023/09/25 13:47:59;;;;;;;;;;;25.50;46.70;;;24.67;49.96;102190.16;12258613;19;19922;-83
2023/09/25 13:52:01;;;;;;;;;;;25.50;46.00;;;24.67;50.39;102190.16;12256024;19;19922;-82
2023/09/25 13:56:03;;;;;;;;;;;25.60;46.10;;;24.70;50.33;102190.72;12260049;19;19915;-82
2023/09/25 14:00:08;;;;;;;;;;;25.60;44.10;;;24.64;50.06;102169.09;12254592;19;19935;-82
2023/09/25 14:04:13;;;;;;;;;;;25.60;44.10;;;24.66;50.13;102173.28;12255882;19;20233;-81
2023/09/25 14:08:14;;;;;;;;;;;25.60;46.70;;;24.70;49.71;102174.69;12254275;19;19953;-82
2023/09/25 14:12:16;;;;;;;;;;;25.60;46.50;;;24.68;49.86;102179.34;12258911;19;19926;-83
2023/09/25 14:16:18;;;;;;;;;;;25.60;45.80;;;24.69;50.00;102174.84;12257573;19;19915;-83
2023/09/25 14:20:19;;;;;;;;;;;25.60;45.60;;;24.69;49.83;102170.34;12252367;19;19933;-82
2023/09/25 14:24:21;;;;;;;;;;;25.60;46.60;;;24.72;49.56;102167.38;12254783;19;19938;-82
2023/09/25 14:28:23;;;;;;;;;;;25.60;46.50;;;24.73;49.77;102169.09;12252658;19;19982;-82
2023/09/25 14:32:25;;;;;;;;;;;25.60;46.50;;;24.69;49.73;102165.00;12249919;19;19930;-83
2023/09/25 14:36:26;;;;;;;;;;;25.60;46.70;;;24.70;49.33;102152.47;12251480;19;19946;-83
2023/09/25 14:40:29;;;;;;;;;;;25.60;46.70;;;24.76;49.61;102162.59;12243849;19;19946;-83
2023/09/25 14:44:30;;;;;;;;;;;25.60;46.70;;;24.69;49.29;102154.31;12236552;19;19918;-83
2023/09/25 14:48:32;;;;;;;;;;;25.60;45.90;;;24.66;49.60;102151.94;12244247;19;19927;-83
2023/09/25 14:52:35;;;;;;;;;;;25.50;46.00;;;24.59;49.71;102145.44;12246671;19;19931;-83
2023/09/25 14:56:36;;;;;;;;;;;25.50;46.00;;;24.59;49.60;102147.28;12246143;19;19922;-83
2023/09/25 15:00:38;;;;;;;;;;;25.50;44.70;;;24.64;49.07;102161.91;12245158;19;20245;-83
2023/09/25 15:04:39;;;;;;;;;;;25.50;46.10;;;24.61;49.62;102158.69;12246878;19;19919;-81
2023/09/25 15:08:41;;;;;;;;;;;25.40;46.00;;;24.58;49.14;102149.13;12240580;19;20265;-82
2023/09/25 15:12:42;;;;;;;;;;;25.40;45.50;;;24.54;49.45;102147.69;12245044;19;19915;-82
2023/09/25 15:16:44;;;;;;;;;;;25.40;45.80;;;24.49;49.26;102142.81;12243601;19;19914;-82
2023/09/25 15:20:46;;;;;;;;;;;25.30;45.90;;;24.49;49.25;102133.94;12243837;19;19940;-82
2023/09/25 15:24:47;;;;;;;;;;;25.30;46.10;;;24.46;49.11;102131.53;12244188;19;19919;-82
2023/09/25 15:28:50;;;;;;;;;;;25.30;46.30;;;24.42;48.89;102128.28;12243117;19;20302;-82
2023/09/25 15:32:52;;;;;;;;;;;25.30;45.90;;;24.40;49.08;102121.41;12241786;19;19935;-82
2023/09/25 15:36:53;;;;;;;;;;;25.20;46.10;;;24.34;48.85;102111.28;12245910;19;19918;-82
2023/09/25 15:40:55;;;;;;;;;;;25.20;46.10;;;24.42;49.07;102122.09;12244218;19;19957;-83
2023/09/25 15:44:56;;;;;;;;;;;25.20;46.20;;;24.40;49.11;102126.75;12240107;19;19958;-82
2023/09/25 15:48:57;;;;;;;;;;;25.20;46.30;;;24.37;49.04;102130.53;12239952;19;19923;-82
2023/09/25 15:52:59;;;;;;;;;;;25.10;46.20;;;24.35;48.92;102126.31;12243029;19;19919;-81
2023/09/25 15:57:01;;;;;;;;;;;25.10;46.30;;;24.22;48.77;102111.44;12241567;19;20342;-82
2023/09/25 16:01:02;;;;;;;;;;;25.10;46.40;;;24.16;49.12;102101.28;12244555;19;19926;-82
2023/09/25 16:05:06;;;;;;;;;;;25.00;46.20;;;24.23;48.64;102113.13;12241080;19;20321;-82
2023/09/25 16:09:11;;;;;;;;;;;25.00;46.40;;;24.20;48.97;102129.41;12240297;19;20280;-81
2023/09/25 16:13:13;;;;;;;;;;;24.90;46.50;;;24.13;48.47;102116.75;12243415;19;19922;-82
2023/09/25 16:17:14;;;;;;;;;;;24.90;46.50;;;24.06;48.81;102127.13;12243850;19;19927;-82
2023/09/25 16:21:16;;;;;;;;;;;24.80;46.50;;;23.99;48.75;102126.03;12242578;19;20365;-82
2023/09/25 16:25:18;;;;;;;;;;;24.70;46.90;;;23.91;48.63;102115.19;12242879;19;20000;-82
2023/09/25 16:29:19;;;;;;;;;;;24.60;46.60;;;23.85;48.34;102128.09;12241450;19;19926;-82
2023/09/25 16:33:21;;;;;;;;;;;24.60;46.70;;;23.79;48.68;102135.78;12239442;19;20340;-82
2023/09/25 16:37:24;;;;;;;;;;;24.50;46.60;;;23.68;48.60;102120.72;12242030;19;19918;-82
2023/09/25 16:41:27;;;;;;;;;;;24.40;46.60;;;23.54;48.66;102110.44;12240556;19;19943;-82
2023/09/25 16:45:28;;;;;;;;;;;24.30;46.70;;;23.50;48.39;102117.03;12241121;19;19915;-83
2023/09/25 16:49:30;;;;;;;;;;;24.20;46.70;;;23.39;48.29;102126.81;12238996;19;19911;-82
2023/09/25 16:53:32;;;;;;;;;;;24.00;46.70;;;23.03;48.25;102082.84;12241232;19;19918;-82
2023/09/25 16:57:33;;;;;;;;;;;23.90;46.80;;;23.18;48.12;102121.53;12243195;19;19922;-82
2023/09/25 17:01:35;;;;;;;;;;;23.80;46.70;;;23.08;48.68;102122.44;12253414;19;19926;-82
2023/09/25 17:05:36;;;;;;;;;;;23.70;46.80;;;22.92;48.25;102118.38;12249905;19;19932;-83
2023/09/25 17:09:38;;;;;;;;;;;23.60;46.90;;;22.85;48.39;102135.91;12248881;19;19922;-82
2023/09/25 17:13:40;;;;;;;;;;;23.50;46.90;;;22.71;48.39;102123.75;12253359;19;19921;-82
2023/09/25 17:17:41;;;;;;;;;;;23.30;46.90;;;22.68;48.22;102137.31;12252082;19;19930;-83
2023/09/25 17:21:43;;;;;;;;;;;23.20;46.90;;;22.56;48.29;102145.50;12250718;19;20324;-82
2023/09/25 17:25:47;;;;;;;;;;;23.10;47.00;;;22.45;48.32;102141.06;12248889;19;19914;-82
2023/09/25 17:29:48;;;;;;;;;;;23.00;47.10;;;22.41;48.34;102143.13;12249170;19;20333;-81
2023/09/25 17:33:50;;;;;;;;;;;23.00;47.10;;;22.35;48.53;102146.28;12251675;19;19915;-82
2023/09/25 17:37:52;;;;;;;;;;;22.90;47.20;;;22.26;48.46;102139.91;12251137;19;20283;-82
2023/09/25 17:41:54;;;;;;;;;;;22.80;47.20;;;22.08;48.52;102128.91;12252296;19;19923;-82
2023/09/25 17:45:55;;;;;;;;;;;22.70;47.30;;;22.08;48.76;102147.56;12249029;19;19922;-82
2023/09/25 17:49:57;;;;;;;;;;;22.60;47.20;;;21.93;48.58;102135.50;12250199;19;19915;-82
2023/09/25 17:53:58;;;;;;;;;;;22.50;47.30;;;21.92;48.80;102152.41;12250615;19;19983;-82
2023/09/25 17:58:00;;;;;;;;;;;22.50;47.40;;;21.89;48.47;102163.31;12250360;19;19919;-82
2023/09/25 18:02:01;;;;;;;;;;;22.40;47.40;;;21.80;48.57;102162.25;12252476;19;19927;-82
2023/09/25 18:06:03;;;;;;;;;;;22.30;47.40;;;21.76;48.91;102157.28;12250452;19;19923;-82
2023/09/25 18:10:06;;;;;;;;;;;22.30;47.50;;;21.68;48.95;102155.22;12248213;19;19922;-83